sensor_id;sensor_type;location;lat;lon;timestamp;temperature;humidity
69533;DHT22;56729;52.036;5.332;2022-10-31T00:00:08;12.20;99.90
69533;DHT22;56729;52.036;5.332;2022-10-31T00:01:22;12.20;99.90
69533;DHT22;56729;52.036;5.332;2022-10-31T00:02:24;12.20;99.90
69533;DHT22;56729;52.036;5.332;2022-10-31T00:03:26;12.20;99.90
69533;DHT22;56729;52.036;5.332;2022-10-31T00:04:28;12.20;99.90
69533;DHT22;56729;52.036;5.332;2022-10-31T00:05:30;12.20;99.90
69533;DHT22;56729;52.036;5.332;2022-10-31T00:06:32;12.20;99.90
69533;DHT22;56729;52.036;5.332;2022-10-31T00:07:34;12.20;99.90
69533;DHT22;56729;52.036;5.332;2022-10-31T00:08:36;12.30;99.90
69533;DHT22;56729;52.036;5.332;2022-10-31T00:09:38;12.30;99.90
69533;DHT22;56729;52.036;5.332;2022-10-31T00:10:41;12.20;99.90
69533;DHT22;56729;52.036;5.332;2022-10-31T00:11:44;12.20;99.90
69533;DHT22;56729;52.036;5.332;2022-10-31T00:12:46;12.30;99.90
69533;DHT22;56729;52.036;5.332;2022-10-31T00:13:48;12.30;99.90
69533;DHT22;56729;52.036;5.332;2022-10-31T00:14:49;12.30;99.90
69533;DHT22;56729;52.036;5.332;2022-10-31T00:15:51;12.20;99.90
69533;DHT22;56729;52.036;5.332;2022-10-31T00:16:53;12.20;99.90
69533;DHT22;56729;52.036;5.332;2022-10-31T00:17:56;12.20;99.90
69533;DHT22;56729;52.036;5.332;2022-10-31T00:19:02;12.20;99.90
69533;DHT22;56729;52.036;5.332;2022-10-31T00:20:04;12.30;99.90
69533;DHT22;56729;52.036;5.332;2022-10-31T00:21:06;12.20;99.90
69533;DHT22;56729;52.036;5.332;2022-10-31T00:22:08;12.30;99.90
69533;DHT22;56729;52.036;5.332;2022-10-31T00:23:11;12.20;99.90
69533;DHT22;56729;52.036;5.332;2022-10-31T00:24:13;12.30;99.90
69533;DHT22;56729;52.036;5.332;2022-10-31T00:25:15;12.20;99.90
69533;DHT22;56729;52.036;5.332;2022-10-31T00:26:17;12.30;99.90
69533;DHT22;56729;52.036;5.332;2022-10-31T00:27:19;12.30;99.90
69533;DHT22;56729;52.036;5.332;2022-10-31T00:28:21;12.20;99.90
69533;DHT22;56729;52.036;5.332;2022-10-31T00:29:23;12.20;99.90
69533;DHT22;56729;52.036;5.332;2022-10-31T00:30:26;12.20;99.90
69533;DHT22;56729;52.036;5.332;2022-10-31T00:31:28;12.20;99.90
69533;DHT22;56729;52.036;5.332;2022-10-31T00:32:30;12.20;99.90
69533;DHT22;56729;52.036;5.332;2022-10-31T00:33:36;12.20;99.90
69533;DHT22;56729;52.036;5.332;2022-10-31T00:34:39;12.20;99.90
69533;DHT22;56729;52.036;5.332;2022-10-31T00:35:41;12.20;99.90
69533;DHT22;56729;52.036;5.332;2022-10-31T00:36:43;12.20;99.90
69533;DHT22;56729;52.036;5.332;2022-10-31T00:37:47;12.20;99.90
69533;DHT22;56729;52.036;5.332;2022-10-31T00:38:50;12.20;99.90
69533;DHT22;56729;52.036;5.332;2022-10-31T00:39:52;12.20;99.90
69533;DHT22;56729;52.036;5.332;2022-10-31T00:40:54;12.20;99.90
69533;DHT22;56729;52.036;5.332;2022-10-31T00:41:56;12.20;99.90
69533;DHT22;56729;52.036;5.332;2022-10-31T00:42:58;12.20;99.90
69533;DHT22;56729;52.036;5.332;2022-10-31T00:44:01;12.10;99.90
69533;DHT22;56729;52.036;5.332;2022-10-31T00:45:05;12.20;99.90
69533;DHT22;56729;52.036;5.332;2022-10-31T00:46:07;12.10;99.90
69533;DHT22;56729;52.036;5.332;2022-10-31T00:47:09;12.10;99.90
69533;DHT22;56729;52.036;5.332;2022-10-31T00:48:12;12.10;99.90
69533;DHT22;56729;52.036;5.332;2022-10-31T00:49:14;12.10;99.90
69533;DHT22;56729;52.036;5.332;2022-10-31T00:50:16;12.10;99.90
69533;DHT22;56729;52.036;5.332;2022-10-31T00:51:19;12.10;99.90
69533;DHT22;56729;52.036;5.332;2022-10-31T00:52:21;12.10;99.90
69533;DHT22;56729;52.036;5.332;2022-10-31T00:53:23;12.10;99.90
69533;DHT22;56729;52.036;5.332;2022-10-31T00:54:25;12.10;99.90
69533;DHT22;56729;52.036;5.332;2022-10-31T00:55:27;12.10;99.90
69533;DHT22;56729;52.036;5.332;2022-10-31T00:56:29;12.10;99.90
69533;DHT22;56729;52.036;5.332;2022-10-31T00:57:31;12.10;99.90
69533;DHT22;56729;52.036;5.332;2022-10-31T00:58:34;12.10;99.90
69533;DHT22;56729;52.036;5.332;2022-10-31T00:59:35;12.10;99.90
69533;DHT22;56729;52.036;5.332;2022-10-31T01:00:37;12.10;99.90
69533;DHT22;56729;52.036;5.332;2022-10-31T01:01:39;12.10;99.90
69533;DHT22;56729;52.036;5.332;2022-10-31T01:02:42;12.10;99.90
69533;DHT22;56729;52.036;5.332;2022-10-31T01:03:44;12.10;99.90
69533;DHT22;56729;52.036;5.332;2022-10-31T01:04:47;12.10;99.90
69533;DHT22;56729;52.036;5.332;2022-10-31T01:06:09;12.00;99.90
69533;DHT22;56729;52.036;5.332;2022-10-31T01:07:12;12.10;99.90
69533;DHT22;56729;52.036;5.332;2022-10-31T01:08:15;12.00;99.90
69533;DHT22;56729;52.036;5.332;2022-10-31T01:09:18;12.00;99.90
69533;DHT22;56729;52.036;5.332;2022-10-31T01:10:20;12.00;99.90
69533;DHT22;56729;52.036;5.332;2022-10-31T01:11:24;12.10;99.90
69533;DHT22;56729;52.036;5.332;2022-10-31T01:12:26;12.10;99.90
69533;DHT22;56729;52.036;5.332;2022-10-31T01:13:28;12.10;99.90
69533;DHT22;56729;52.036;5.332;2022-10-31T01:14:30;12.10;99.90
69533;DHT22;56729;52.036;5.332;2022-10-31T01:15:32;12.10;99.90
69533;DHT22;56729;52.036;5.332;2022-10-31T01:16:34;12.10;99.90
69533;DHT22;56729;52.036;5.332;2022-10-31T01:17:35;12.10;99.90
69533;DHT22;56729;52.036;5.332;2022-10-31T01:18:38;12.10;99.90
69533;DHT22;56729;52.036;5.332;2022-10-31T01:19:42;12.10;99.90
69533;DHT22;56729;52.036;5.332;2022-10-31T01:20:44;12.10;99.90
69533;DHT22;56729;52.036;5.332;2022-10-31T01:21:47;12.10;99.90
69533;DHT22;56729;52.036;5.332;2022-10-31T01:22:49;12.10;99.90
69533;DHT22;56729;52.036;5.332;2022-10-31T01:23:53;12.10;99.90
69533;DHT22;56729;52.036;5.332;2022-10-31T01:24:55;12.00;99.90
69533;DHT22;56729;52.036;5.332;2022-10-31T01:26:01;12.00;99.90
69533;DHT22;56729;52.036;5.332;2022-10-31T01:27:03;12.00;99.90
69533;DHT22;56729;52.036;5.332;2022-10-31T01:28:08;11.90;99.90
69533;DHT22;56729;52.036;5.332;2022-10-31T01:29:10;11.90;99.90
69533;DHT22;56729;52.036;5.332;2022-10-31T01:30:12;11.90;99.90
69533;DHT22;56729;52.036;5.332;2022-10-31T01:31:14;11.80;99.90
69533;DHT22;56729;52.036;5.332;2022-10-31T01:32:16;11.80;99.90
69533;DHT22;56729;52.036;5.332;2022-10-31T01:33:19;11.80;99.90
69533;DHT22;56729;52.036;5.332;2022-10-31T01:34:21;11.80;99.90
69533;DHT22;56729;52.036;5.332;2022-10-31T01:35:23;11.80;99.90
69533;DHT22;56729;52.036;5.332;2022-10-31T01:36:33;11.80;99.90
69533;DHT22;56729;52.036;5.332;2022-10-31T01:37:35;11.80;99.90
69533;DHT22;56729;52.036;5.332;2022-10-31T01:38:37;11.80;99.90
69533;DHT22;56729;52.036;5.332;2022-10-31T01:39:39;11.80;99.90
69533;DHT22;56729;52.036;5.332;2022-10-31T01:40:41;11.80;99.90
69533;DHT22;56729;52.036;5.332;2022-10-31T01:41:48;11.80;99.90
69533;DHT22;56729;52.036;5.332;2022-10-31T01:42:50;11.80;99.90
69533;DHT22;56729;52.036;5.332;2022-10-31T01:43:56;11.80;99.90
69533;DHT22;56729;52.036;5.332;2022-10-31T01:45:00;11.80;99.90
69533;DHT22;56729;52.036;5.332;2022-10-31T01:46:03;11.80;99.90
69533;DHT22;56729;52.036;5.332;2022-10-31T01:48:14;11.80;99.90
69533;DHT22;56729;52.036;5.332;2022-10-31T01:49:31;11.80;99.90
69533;DHT22;56729;52.036;5.332;2022-10-31T01:50:37;11.80;99.90
69533;DHT22;56729;52.036;5.332;2022-10-31T01:51:54;11.70;99.90
69533;DHT22;56729;52.036;5.332;2022-10-31T01:52:57;11.70;99.90
69533;DHT22;56729;52.036;5.332;2022-10-31T01:54:05;11.70;99.90
69533;DHT22;56729;52.036;5.332;2022-10-31T01:55:32;11.70;99.90
69533;DHT22;56729;52.036;5.332;2022-10-31T01:56:39;11.60;99.90
69533;DHT22;56729;52.036;5.332;2022-10-31T01:57:45;11.60;99.90
69533;DHT22;56729;52.036;5.332;2022-10-31T01:58:51;11.50;99.90
69533;DHT22;56729;52.036;5.332;2022-10-31T01:59:57;11.50;99.90
69533;DHT22;56729;52.036;5.332;2022-10-31T02:01:01;11.50;99.90
69533;DHT22;56729;52.036;5.332;2022-10-31T02:02:09;11.50;99.90
69533;DHT22;56729;52.036;5.332;2022-10-31T02:03:12;11.50;99.90
69533;DHT22;56729;52.036;5.332;2022-10-31T02:04:14;11.40;99.90
69533;DHT22;56729;52.036;5.332;2022-10-31T02:05:20;11.50;99.90
69533;DHT22;56729;52.036;5.332;2022-10-31T02:06:33;11.50;99.90
69533;DHT22;56729;52.036;5.332;2022-10-31T02:07:48;11.50;99.90
69533;DHT22;56729;52.036;5.332;2022-10-31T02:08:55;11.50;99.90
69533;DHT22;56729;52.036;5.332;2022-10-31T02:10:00;11.40;99.90
69533;DHT22;56729;52.036;5.332;2022-10-31T02:11:02;11.40;99.90
69533;DHT22;56729;52.036;5.332;2022-10-31T02:12:04;11.40;99.90
69533;DHT22;56729;52.036;5.332;2022-10-31T02:13:07;11.40;99.90
69533;DHT22;56729;52.036;5.332;2022-10-31T02:14:18;11.40;99.90
69533;DHT22;56729;52.036;5.332;2022-10-31T02:15:20;11.40;99.90
69533;DHT22;56729;52.036;5.332;2022-10-31T02:16:23;11.40;99.90
69533;DHT22;56729;52.036;5.332;2022-10-31T02:17:28;11.40;99.90
69533;DHT22;56729;52.036;5.332;2022-10-31T02:18:31;11.40;99.90
69533;DHT22;56729;52.036;5.332;2022-10-31T02:22:19;11.30;99.90
69533;DHT22;56729;52.036;5.332;2022-10-31T02:28:33;11.10;99.90
69533;DHT22;56729;52.036;5.332;2022-10-31T02:32:19;11.00;99.90
69533;DHT22;56729;52.036;5.332;2022-10-31T02:33:34;11.00;99.90
69533;DHT22;56729;52.036;5.332;2022-10-31T02:35:06;11.00;99.90
69533;DHT22;56729;52.036;5.332;2022-10-31T02:37:40;10.90;99.90
69533;DHT22;56729;52.036;5.332;2022-10-31T02:39:07;10.90;99.90
69533;DHT22;56729;52.036;5.332;2022-10-31T02:40:37;10.90;99.90
69533;DHT22;56729;52.036;5.332;2022-10-31T02:42:05;10.80;99.90
69533;DHT22;56729;52.036;5.332;2022-10-31T02:43:34;10.80;99.90
69533;DHT22;56729;52.036;5.332;2022-10-31T02:45:00;10.80;99.90
69533;DHT22;56729;52.036;5.332;2022-10-31T02:46:14;10.80;99.90
69533;DHT22;56729;52.036;5.332;2022-10-31T02:47:27;10.70;99.90
69533;DHT22;56729;52.036;5.332;2022-10-31T02:48:31;10.70;99.90
69533;DHT22;56729;52.036;5.332;2022-10-31T02:49:38;10.70;99.90
69533;DHT22;56729;52.036;5.332;2022-10-31T02:50:49;10.70;99.90
69533;DHT22;56729;52.036;5.332;2022-10-31T02:51:53;10.70;99.90
69533;DHT22;56729;52.036;5.332;2022-10-31T02:52:55;10.70;99.90
69533;DHT22;56729;52.036;5.332;2022-10-31T02:54:00;10.70;99.90
69533;DHT22;56729;52.036;5.332;2022-10-31T02:56:31;10.70;99.90
69533;DHT22;56729;52.036;5.332;2022-10-31T02:57:35;10.70;99.90
69533;DHT22;56729;52.036;5.332;2022-10-31T02:58:45;10.70;99.90
69533;DHT22;56729;52.036;5.332;2022-10-31T02:59:53;10.70;99.90
69533;DHT22;56729;52.036;5.332;2022-10-31T03:03:33;10.70;99.90
69533;DHT22;56729;52.036;5.332;2022-10-31T03:06:09;10.70;99.90
69533;DHT22;56729;52.036;5.332;2022-10-31T03:10:20;10.60;99.90
69533;DHT22;56729;52.036;5.332;2022-10-31T03:11:32;10.60;99.90
69533;DHT22;56729;52.036;5.332;2022-10-31T03:13:01;10.50;99.90
69533;DHT22;56729;52.036;5.332;2022-10-31T03:14:10;10.50;99.90
69533;DHT22;56729;52.036;5.332;2022-10-31T03:15:27;10.50;99.90
69533;DHT22;56729;52.036;5.332;2022-10-31T03:16:48;10.50;99.90
69533;DHT22;56729;52.036;5.332;2022-10-31T03:19:03;10.50;99.90
69533;DHT22;56729;52.036;5.332;2022-10-31T03:20:10;10.50;99.90
69533;DHT22;56729;52.036;5.332;2022-10-31T03:21:42;10.50;99.90
69533;DHT22;56729;52.036;5.332;2022-10-31T03:22:45;10.50;99.90
69533;DHT22;56729;52.036;5.332;2022-10-31T03:23:50;10.50;99.90
69533;DHT22;56729;52.036;5.332;2022-10-31T03:24:55;10.50;99.90
69533;DHT22;56729;52.036;5.332;2022-10-31T03:25:58;10.50;99.90
69533;DHT22;56729;52.036;5.332;2022-10-31T03:27:04;10.50;99.90
69533;DHT22;56729;52.036;5.332;2022-10-31T03:28:11;10.50;99.90
69533;DHT22;56729;52.036;5.332;2022-10-31T03:29:16;10.50;99.90
69533;DHT22;56729;52.036;5.332;2022-10-31T03:30:19;10.50;99.90
69533;DHT22;56729;52.036;5.332;2022-10-31T03:31:33;10.50;99.90
69533;DHT22;56729;52.036;5.332;2022-10-31T03:32:51;10.50;99.90
69533;DHT22;56729;52.036;5.332;2022-10-31T03:33:58;10.50;99.90
69533;DHT22;56729;52.036;5.332;2022-10-31T03:35:05;10.50;99.90
69533;DHT22;56729;52.036;5.332;2022-10-31T03:36:10;10.40;99.90
69533;DHT22;56729;52.036;5.332;2022-10-31T03:37:17;10.40;99.90
69533;DHT22;56729;52.036;5.332;2022-10-31T03:38:21;10.40;99.90
69533;DHT22;56729;52.036;5.332;2022-10-31T03:39:24;10.40;99.90
69533;DHT22;56729;52.036;5.332;2022-10-31T03:40:27;10.40;99.90
69533;DHT22;56729;52.036;5.332;2022-10-31T03:41:34;10.40;99.90
69533;DHT22;56729;52.036;5.332;2022-10-31T03:42:41;10.40;99.90
69533;DHT22;56729;52.036;5.332;2022-10-31T03:43:52;10.40;99.90
69533;DHT22;56729;52.036;5.332;2022-10-31T03:45:16;10.40;99.90
69533;DHT22;56729;52.036;5.332;2022-10-31T03:46:22;10.40;99.90
69533;DHT22;56729;52.036;5.332;2022-10-31T03:47:24;10.40;99.90
69533;DHT22;56729;52.036;5.332;2022-10-31T03:48:27;10.40;99.90
69533;DHT22;56729;52.036;5.332;2022-10-31T03:49:30;10.40;99.90
69533;DHT22;56729;52.036;5.332;2022-10-31T03:50:45;10.40;99.90
69533;DHT22;56729;52.036;5.332;2022-10-31T03:53:24;10.50;99.90
69533;DHT22;56729;52.036;5.332;2022-10-31T03:54:53;10.40;99.90
69533;DHT22;56729;52.036;5.332;2022-10-31T03:56:04;10.40;99.90
69533;DHT22;56729;52.036;5.332;2022-10-31T03:57:11;10.40;99.90
69533;DHT22;56729;52.036;5.332;2022-10-31T03:58:34;10.40;99.90
69533;DHT22;56729;52.036;5.332;2022-10-31T03:59:44;10.40;99.90
69533;DHT22;56729;52.036;5.332;2022-10-31T04:00:51;10.30;99.90
69533;DHT22;56729;52.036;5.332;2022-10-31T04:01:58;10.30;99.90
69533;DHT22;56729;52.036;5.332;2022-10-31T04:04:12;10.30;99.90
69533;DHT22;56729;52.036;5.332;2022-10-31T04:05:17;10.30;99.90
69533;DHT22;56729;52.036;5.332;2022-10-31T04:06:21;10.30;99.90
69533;DHT22;56729;52.036;5.332;2022-10-31T04:07:28;10.20;99.90
69533;DHT22;56729;52.036;5.332;2022-10-31T04:08:34;10.20;99.90
69533;DHT22;56729;52.036;5.332;2022-10-31T04:09:40;10.20;99.90
69533;DHT22;56729;52.036;5.332;2022-10-31T04:10:46;10.20;99.90
69533;DHT22;56729;52.036;5.332;2022-10-31T04:11:54;10.20;99.90
69533;DHT22;56729;52.036;5.332;2022-10-31T04:13:14;10.20;99.90
69533;DHT22;56729;52.036;5.332;2022-10-31T04:14:25;10.20;99.90
69533;DHT22;56729;52.036;5.332;2022-10-31T04:15:28;10.20;99.90
69533;DHT22;56729;52.036;5.332;2022-10-31T04:16:32;10.20;99.90
69533;DHT22;56729;52.036;5.332;2022-10-31T04:17:39;10.20;99.90
69533;DHT22;56729;52.036;5.332;2022-10-31T04:18:41;10.20;99.90
69533;DHT22;56729;52.036;5.332;2022-10-31T04:19:44;10.20;99.90
69533;DHT22;56729;52.036;5.332;2022-10-31T04:20:47;10.20;99.90
69533;DHT22;56729;52.036;5.332;2022-10-31T04:21:51;10.20;99.90
69533;DHT22;56729;52.036;5.332;2022-10-31T04:22:54;10.20;99.90
69533;DHT22;56729;52.036;5.332;2022-10-31T04:23:56;10.20;99.90
69533;DHT22;56729;52.036;5.332;2022-10-31T04:25:01;10.20;99.90
69533;DHT22;56729;52.036;5.332;2022-10-31T04:26:04;10.20;99.90
69533;DHT22;56729;52.036;5.332;2022-10-31T04:27:06;10.20;99.90
69533;DHT22;56729;52.036;5.332;2022-10-31T04:28:08;10.20;99.90
69533;DHT22;56729;52.036;5.332;2022-10-31T04:29:10;10.20;99.90
69533;DHT22;56729;52.036;5.332;2022-10-31T04:30:12;10.20;99.90
69533;DHT22;56729;52.036;5.332;2022-10-31T04:31:15;10.30;99.90
69533;DHT22;56729;52.036;5.332;2022-10-31T04:32:19;10.30;99.90
69533;DHT22;56729;52.036;5.332;2022-10-31T04:33:21;10.30;99.90
69533;DHT22;56729;52.036;5.332;2022-10-31T04:34:23;10.30;99.90
69533;DHT22;56729;52.036;5.332;2022-10-31T04:35:25;10.30;99.90
69533;DHT22;56729;52.036;5.332;2022-10-31T04:36:28;10.30;99.90
69533;DHT22;56729;52.036;5.332;2022-10-31T04:37:32;10.30;99.90
69533;DHT22;56729;52.036;5.332;2022-10-31T04:38:36;10.30;99.90
69533;DHT22;56729;52.036;5.332;2022-10-31T04:39:47;10.30;99.90
69533;DHT22;56729;52.036;5.332;2022-10-31T04:41:24;10.20;99.90
69533;DHT22;56729;52.036;5.332;2022-10-31T04:42:35;10.20;99.90
69533;DHT22;56729;52.036;5.332;2022-10-31T04:43:39;10.20;99.90
69533;DHT22;56729;52.036;5.332;2022-10-31T04:44:41;10.20;99.90
69533;DHT22;56729;52.036;5.332;2022-10-31T04:45:43;10.20;99.90
69533;DHT22;56729;52.036;5.332;2022-10-31T04:46:47;10.20;99.90
69533;DHT22;56729;52.036;5.332;2022-10-31T04:47:49;10.20;99.90
69533;DHT22;56729;52.036;5.332;2022-10-31T04:48:51;10.20;99.90
69533;DHT22;56729;52.036;5.332;2022-10-31T04:49:55;10.20;99.90
69533;DHT22;56729;52.036;5.332;2022-10-31T04:51:00;10.20;99.90
69533;DHT22;56729;52.036;5.332;2022-10-31T04:52:02;10.20;99.90
69533;DHT22;56729;52.036;5.332;2022-10-31T04:53:05;10.20;99.90
69533;DHT22;56729;52.036;5.332;2022-10-31T04:54:13;10.10;99.90
69533;DHT22;56729;52.036;5.332;2022-10-31T04:55:21;10.20;99.90
69533;DHT22;56729;52.036;5.332;2022-10-31T04:56:41;10.10;99.90
69533;DHT22;56729;52.036;5.332;2022-10-31T04:57:49;10.20;99.90
69533;DHT22;56729;52.036;5.332;2022-10-31T04:58:53;10.10;99.90
69533;DHT22;56729;52.036;5.332;2022-10-31T04:59:56;10.10;99.90
69533;DHT22;56729;52.036;5.332;2022-10-31T05:00:58;10.20;99.90
69533;DHT22;56729;52.036;5.332;2022-10-31T05:02:00;10.10;99.90
69533;DHT22;56729;52.036;5.332;2022-10-31T05:03:16;10.10;99.90
69533;DHT22;56729;52.036;5.332;2022-10-31T05:04:18;10.10;99.90
69533;DHT22;56729;52.036;5.332;2022-10-31T05:05:26;10.10;99.90
69533;DHT22;56729;52.036;5.332;2022-10-31T05:06:28;10.10;99.90
69533;DHT22;56729;52.036;5.332;2022-10-31T05:07:31;10.10;99.90
69533;DHT22;56729;52.036;5.332;2022-10-31T05:08:33;10.10;99.90
69533;DHT22;56729;52.036;5.332;2022-10-31T05:09:38;10.10;99.90
69533;DHT22;56729;52.036;5.332;2022-10-31T05:10:40;10.10;99.90
69533;DHT22;56729;52.036;5.332;2022-10-31T05:11:42;10.10;99.90
69533;DHT22;56729;52.036;5.332;2022-10-31T05:13:17;10.10;99.90
69533;DHT22;56729;52.036;5.332;2022-10-31T05:14:37;10.10;99.90
69533;DHT22;56729;52.036;5.332;2022-10-31T05:16:14;10.10;99.90
69533;DHT22;56729;52.036;5.332;2022-10-31T05:17:35;10.00;99.90
69533;DHT22;56729;52.036;5.332;2022-10-31T05:19:06;10.00;99.90
69533;DHT22;56729;52.036;5.332;2022-10-31T05:20:34;10.00;99.90
69533;DHT22;56729;52.036;5.332;2022-10-31T05:21:49;10.00;99.90
69533;DHT22;56729;52.036;5.332;2022-10-31T05:22:55;10.00;99.90
69533;DHT22;56729;52.036;5.332;2022-10-31T05:23:57;10.00;99.90
69533;DHT22;56729;52.036;5.332;2022-10-31T05:24:59;10.00;99.90
69533;DHT22;56729;52.036;5.332;2022-10-31T05:26:01;10.00;99.90
69533;DHT22;56729;52.036;5.332;2022-10-31T05:27:03;10.10;99.90
69533;DHT22;56729;52.036;5.332;2022-10-31T05:28:05;10.10;99.90
69533;DHT22;56729;52.036;5.332;2022-10-31T05:29:07;10.10;99.90
69533;DHT22;56729;52.036;5.332;2022-10-31T05:30:12;10.10;99.90
69533;DHT22;56729;52.036;5.332;2022-10-31T05:31:14;10.10;99.90
69533;DHT22;56729;52.036;5.332;2022-10-31T05:32:20;10.10;99.90
69533;DHT22;56729;52.036;5.332;2022-10-31T05:33:57;10.10;99.90
69533;DHT22;56729;52.036;5.332;2022-10-31T05:35:32;10.10;99.90
69533;DHT22;56729;52.036;5.332;2022-10-31T05:37:00;10.10;99.90
69533;DHT22;56729;52.036;5.332;2022-10-31T05:38:04;10.10;99.90
69533;DHT22;56729;52.036;5.332;2022-10-31T05:39:07;10.10;99.90
69533;DHT22;56729;52.036;5.332;2022-10-31T05:40:15;10.10;99.90
69533;DHT22;56729;52.036;5.332;2022-10-31T05:41:18;10.10;99.90
69533;DHT22;56729;52.036;5.332;2022-10-31T05:42:21;10.20;99.90
69533;DHT22;56729;52.036;5.332;2022-10-31T05:43:24;10.20;99.90
69533;DHT22;56729;52.036;5.332;2022-10-31T05:44:26;10.20;99.90
69533;DHT22;56729;52.036;5.332;2022-10-31T05:45:52;10.20;99.90
69533;DHT22;56729;52.036;5.332;2022-10-31T05:47:14;10.20;99.90
69533;DHT22;56729;52.036;5.332;2022-10-31T05:48:34;10.20;99.90
69533;DHT22;56729;52.036;5.332;2022-10-31T05:50:03;10.20;99.90
69533;DHT22;56729;52.036;5.332;2022-10-31T05:51:22;10.20;99.90
69533;DHT22;56729;52.036;5.332;2022-10-31T05:52:25;10.20;99.90
69533;DHT22;56729;52.036;5.332;2022-10-31T05:53:34;10.20;99.90
69533;DHT22;56729;52.036;5.332;2022-10-31T05:54:36;10.20;99.90
69533;DHT22;56729;52.036;5.332;2022-10-31T05:55:38;10.30;99.90
69533;DHT22;56729;52.036;5.332;2022-10-31T05:56:45;10.30;99.90
69533;DHT22;56729;52.036;5.332;2022-10-31T05:57:48;10.30;99.90
69533;DHT22;56729;52.036;5.332;2022-10-31T05:58:50;10.30;99.90
69533;DHT22;56729;52.036;5.332;2022-10-31T05:59:52;10.30;99.90
69533;DHT22;56729;52.036;5.332;2022-10-31T06:00:57;10.30;99.90
69533;DHT22;56729;52.036;5.332;2022-10-31T06:01:59;10.30;99.90
69533;DHT22;56729;52.036;5.332;2022-10-31T06:03:20;10.30;99.90
69533;DHT22;56729;52.036;5.332;2022-10-31T06:04:26;10.40;99.90
69533;DHT22;56729;52.036;5.332;2022-10-31T06:05:29;10.40;99.90
69533;DHT22;56729;52.036;5.332;2022-10-31T06:06:31;10.40;99.90
69533;DHT22;56729;52.036;5.332;2022-10-31T06:07:34;10.40;99.90
69533;DHT22;56729;52.036;5.332;2022-10-31T06:08:37;10.40;99.90
69533;DHT22;56729;52.036;5.332;2022-10-31T06:09:44;10.40;99.90
69533;DHT22;56729;52.036;5.332;2022-10-31T06:10:46;10.40;99.90
69533;DHT22;56729;52.036;5.332;2022-10-31T06:11:51;10.40;99.90
69533;DHT22;56729;52.036;5.332;2022-10-31T06:12:59;10.40;99.90
69533;DHT22;56729;52.036;5.332;2022-10-31T06:14:19;10.40;99.90
69533;DHT22;56729;52.036;5.332;2022-10-31T06:15:27;10.40;99.90
69533;DHT22;56729;52.036;5.332;2022-10-31T06:16:30;10.50;99.90
69533;DHT22;56729;52.036;5.332;2022-10-31T06:17:41;10.40;99.90
69533;DHT22;56729;52.036;5.332;2022-10-31T06:18:55;10.50;99.90
69533;DHT22;56729;52.036;5.332;2022-10-31T06:19:58;10.50;99.90
69533;DHT22;56729;52.036;5.332;2022-10-31T06:21:01;10.50;99.90
69533;DHT22;56729;52.036;5.332;2022-10-31T06:22:03;10.50;99.90
69533;DHT22;56729;52.036;5.332;2022-10-31T06:23:06;10.50;99.90
69533;DHT22;56729;52.036;5.332;2022-10-31T06:24:08;10.50;99.90
69533;DHT22;56729;52.036;5.332;2022-10-31T06:25:34;10.60;99.90
69533;DHT22;56729;52.036;5.332;2022-10-31T06:26:38;10.60;99.90
69533;DHT22;56729;52.036;5.332;2022-10-31T06:27:41;10.60;99.90
69533;DHT22;56729;52.036;5.332;2022-10-31T06:28:48;10.60;99.90
69533;DHT22;56729;52.036;5.332;2022-10-31T06:30:19;10.60;99.90
69533;DHT22;56729;52.036;5.332;2022-10-31T06:31:21;10.60;99.90
69533;DHT22;56729;52.036;5.332;2022-10-31T06:32:23;10.60;99.90
69533;DHT22;56729;52.036;5.332;2022-10-31T06:33:25;10.70;99.90
69533;DHT22;56729;52.036;5.332;2022-10-31T06:34:30;10.70;99.90
69533;DHT22;56729;52.036;5.332;2022-10-31T06:35:32;10.70;99.90
69533;DHT22;56729;52.036;5.332;2022-10-31T06:36:35;10.70;99.90
69533;DHT22;56729;52.036;5.332;2022-10-31T06:37:38;10.80;99.90
69533;DHT22;56729;52.036;5.332;2022-10-31T06:38:57;10.80;99.90
69533;DHT22;56729;52.036;5.332;2022-10-31T06:40:00;10.80;99.90
69533;DHT22;56729;52.036;5.332;2022-10-31T06:41:06;10.80;99.90
69533;DHT22;56729;52.036;5.332;2022-10-31T06:42:22;10.80;99.90
69533;DHT22;56729;52.036;5.332;2022-10-31T06:43:24;10.80;99.90
69533;DHT22;56729;52.036;5.332;2022-10-31T06:44:41;10.80;99.90
69533;DHT22;56729;52.036;5.332;2022-10-31T06:46:15;10.80;99.90
69533;DHT22;56729;52.036;5.332;2022-10-31T06:47:29;10.80;99.90
69533;DHT22;56729;52.036;5.332;2022-10-31T06:48:52;10.80;99.90
69533;DHT22;56729;52.036;5.332;2022-10-31T06:50:01;10.80;99.90
69533;DHT22;56729;52.036;5.332;2022-10-31T06:51:03;10.80;99.90
69533;DHT22;56729;52.036;5.332;2022-10-31T06:52:06;10.90;99.90
69533;DHT22;56729;52.036;5.332;2022-10-31T06:53:08;10.90;99.90
69533;DHT22;56729;52.036;5.332;2022-10-31T06:54:11;10.90;99.90
69533;DHT22;56729;52.036;5.332;2022-10-31T06:55:13;10.90;99.90
69533;DHT22;56729;52.036;5.332;2022-10-31T06:56:15;11.00;99.90
69533;DHT22;56729;52.036;5.332;2022-10-31T06:57:22;10.90;99.90
69533;DHT22;56729;52.036;5.332;2022-10-31T06:58:24;11.00;99.90
69533;DHT22;56729;52.036;5.332;2022-10-31T06:59:29;11.00;99.90
69533;DHT22;56729;52.036;5.332;2022-10-31T07:01:00;11.00;99.90
69533;DHT22;56729;52.036;5.332;2022-10-31T07:02:03;11.00;99.90
69533;DHT22;56729;52.036;5.332;2022-10-31T07:03:10;11.00;99.90
69533;DHT22;56729;52.036;5.332;2022-10-31T07:04:13;11.10;99.90
69533;DHT22;56729;52.036;5.332;2022-10-31T07:05:15;11.10;99.90
69533;DHT22;56729;52.036;5.332;2022-10-31T07:06:17;11.10;99.90
69533;DHT22;56729;52.036;5.332;2022-10-31T07:07:20;11.10;99.90
69533;DHT22;56729;52.036;5.332;2022-10-31T07:08:25;11.20;99.90
69533;DHT22;56729;52.036;5.332;2022-10-31T07:09:27;11.20;99.90
69533;DHT22;56729;52.036;5.332;2022-10-31T07:10:32;11.20;99.90
69533;DHT22;56729;52.036;5.332;2022-10-31T07:11:41;11.30;99.90
69533;DHT22;56729;52.036;5.332;2022-10-31T07:12:43;11.30;99.90
69533;DHT22;56729;52.036;5.332;2022-10-31T07:13:45;11.30;99.90
69533;DHT22;56729;52.036;5.332;2022-10-31T07:14:47;11.30;99.90
69533;DHT22;56729;52.036;5.332;2022-10-31T07:15:49;11.30;99.90
69533;DHT22;56729;52.036;5.332;2022-10-31T07:16:51;11.30;99.90
69533;DHT22;56729;52.036;5.332;2022-10-31T07:18:03;11.30;99.90
69533;DHT22;56729;52.036;5.332;2022-10-31T07:19:05;11.30;99.90
69533;DHT22;56729;52.036;5.332;2022-10-31T07:20:08;11.30;99.90
69533;DHT22;56729;52.036;5.332;2022-10-31T07:21:11;11.40;99.90
69533;DHT22;56729;52.036;5.332;2022-10-31T07:22:14;11.40;99.90
69533;DHT22;56729;52.036;5.332;2022-10-31T07:23:18;11.40;99.90
69533;DHT22;56729;52.036;5.332;2022-10-31T07:24:27;11.40;99.90
69533;DHT22;56729;52.036;5.332;2022-10-31T07:25:32;11.40;99.90
69533;DHT22;56729;52.036;5.332;2022-10-31T07:26:39;11.40;99.90